Terminal Aerodrome Forecast
Issued by NWS Tuscon, AZ

Home | Current Version | Previous Version | Text Only | Print | Product List | Glossary On
Versions: 1 2 3 4 5 6 7 8 9 10 11 12 13 14 15 16 17 18 19 20 21
000
FTUS45 KTWC 180500
TAFTUS
TAF
KTUS 180520Z 1806/1906 10011KT P6SM SCT050 OVC080
     FM181300 16008KT P6SM SCT040 OVC070
     FM181800 27008KT P6SM SCT040 BKN080=

USA.gov is the U.S. government's official web portal to all federal, state and local government web resources and services.